KHWDKSAC

Guest
Details From KHWD - Hayward Executive
To KSAC - Sacramento Executive
Flight Number -
Tags Routegen
Created
Modified
Stats Distance 59 nm / 109 km
Max Altitude 0 ft / 0 m
Waypoints 2
Social Downloads 6
Likes 0
Share VATSIM

Download

Looking for another format? Having issues loading an existing format? Contact us
Advertisement - Login to hide

Notes

None

Route

KHWD KSAC

ID Type Via Altitude Latitude Longitude Leg Dist Tot Dist Heading (true) Name
O KHWD APT - 0 ft / 0 m 37.66204˚ -122.12979˚ - 0 nm - -
O KSAC APT - 0 ft / 0 m 38.50520˚ -121.50073˚ 58 nm 58 nm 30° / 31° -

Altitude Profile

Advertisement - Login to hide

KHWD

Details ICAO KHWD (HWD)
Name Hayward Executive
Region United States
Timezone America/Los_Angeles (UTC-7.0)
Stats Elevation 52 ft / 16 m (AMSL)
Location 37.659252° -122.121935°
Runways 2
Magnetic Variation 13.391° E

METAR

KHWD 270354Z AUTO 26007KT 10SM CLR 14/10 A3004 RMK AO2 SLP182 T01390100

Decode

TAF

Not found

Departure Runways

ID Width Length Bearing (true) Bearing (mag) Surface Threshold Offset Overrun Length
10L 75 ft / 23 m 3,104 ft / 946 m 119.95° 106.56° Asphalt 0 ft / 0 m 0 ft / 0 m
10R 151 ft / 46 m 5,688 ft / 1,734 m 119.95° 106.56° Asphalt 817 ft / 249 m 0 ft / 0 m
28L 151 ft / 46 m 5,688 ft / 1,734 m 299.96° 286.57° Asphalt 676 ft / 206 m 0 ft / 0 m
28R 75 ft / 23 m 3,104 ft / 946 m 299.96° 286.57° Asphalt 0 ft / 0 m 0 ft / 0 m

KSAC

Details ICAO KSAC (SAC)
Name Sacramento Executive
Region United States
Timezone America/Los_Angeles (UTC-7.0)
Stats Elevation 24 ft / 7 m (AMSL)
Location 38.512642° -121.493193°
Runways 3
Magnetic Variation 13.473° E

METAR

KSAC 270353Z 23007KT 10SM CLR 18/13 A2998 RMK AO2 SLP153 T01830128

Decode

TAF

KSAC 262342Z 2700/2724 34008KT P6SM BKN060 FM270200 23006KT P6SM SKC FM270800 VRB03KT P6SM SKC FM271700 33005KT P6SM SKC

Decode

Destination Runways

ID Width Length Bearing (true) Bearing (mag) Surface Threshold Offset Overrun Length
02 151 ft / 46 m 5,507 ft / 1,679 m 33.00° 19.53° Asphalt 0 ft / 0 m 0 ft / 0 m
12 98 ft / 30 m 3,834 ft / 1,169 m 133.23° 119.76° Asphalt 0 ft / 0 m 699 ft / 213 m
16 151 ft / 46 m 3,492 ft / 1,064 m 179.61° 166.14° Asphalt 0 ft / 0 m 0 ft / 0 m
20 151 ft / 46 m 5,507 ft / 1,679 m 213.01° 199.54° Asphalt 0 ft / 0 m 0 ft / 0 m
30 98 ft / 30 m 3,834 ft / 1,169 m 313.24° 299.77° Asphalt 0 ft / 0 m 0 ft / 0 m
34 151 ft / 46 m 3,492 ft / 1,064 m 359.61° 346.14° Asphalt 0 ft / 0 m 0 ft / 0 m

Approach Navaids

Runway Type Ident Frequency Range Bearing (true) Bearing (mag) Slope Elevation
02 Localiser ISAC 110.30 MHz 18 nm / 33 km 33.01° 19.53° - 23 ft / 7 m (AMSL)
02 Glidescope ISAC 110.30 MHz 10 nm / 19 km 33.01° 19.53° 3.00° 18 ft / 5 m (AMSL)

Popular Alternatives